sensor_id;sensor_type;location;lat;lon;timestamp;P1;durP1;ratioP1;P2;durP2;ratioP2
22334;SDS011;11335;43.848;25.958;2022-08-03T00:02:36;6.57;;;4.90;;
22334;SDS011;11335;43.848;25.958;2022-08-03T00:05:22;5.80;;;5.07;;
22334;SDS011;11335;43.848;25.958;2022-08-03T00:08:08;7.13;;;4.90;;
22334;SDS011;11335;43.848;25.958;2022-08-03T00:10:54;7.68;;;5.13;;
22334;SDS011;11335;43.848;25.958;2022-08-03T00:13:39;9.40;;;4.97;;
22334;SDS011;11335;43.848;25.958;2022-08-03T00:16:25;6.68;;;4.82;;
22334;SDS011;11335;43.848;25.958;2022-08-03T00:19:11;9.40;;;4.85;;
22334;SDS011;11335;43.848;25.958;2022-08-03T00:21:57;7.53;;;4.40;;
22334;SDS011;11335;43.848;25.958;2022-08-03T00:24:43;7.30;;;4.65;;
22334;SDS011;11335;43.848;25.958;2022-08-03T00:27:28;7.07;;;4.80;;
22334;SDS011;11335;43.848;25.958;2022-08-03T00:30:14;5.43;;;4.88;;
22334;SDS011;11335;43.848;25.958;2022-08-03T00:33:00;6.72;;;4.72;;
22334;SDS011;11335;43.848;25.958;2022-08-03T00:35:46;5.72;;;4.53;;
22334;SDS011;11335;43.848;25.958;2022-08-03T00:38:32;5.35;;;4.85;;
22334;SDS011;11335;43.848;25.958;2022-08-03T00:41:18;6.50;;;4.47;;
22334;SDS011;11335;43.848;25.958;2022-08-03T00:44:03;6.30;;;4.65;;
22334;SDS011;11335;43.848;25.958;2022-08-03T00:46:49;5.47;;;4.97;;
22334;SDS011;11335;43.848;25.958;2022-08-03T00:49:36;5.53;;;4.50;;
22334;SDS011;11335;43.848;25.958;2022-08-03T00:52:23;5.35;;;4.80;;
22334;SDS011;11335;43.848;25.958;2022-08-03T00:55:09;10.45;;;5.47;;
22334;SDS011;11335;43.848;25.958;2022-08-03T00:57:55;5.38;;;4.82;;
22334;SDS011;11335;43.848;25.958;2022-08-03T01:00:43;7.32;;;5.07;;
22334;SDS011;11335;43.848;25.958;2022-08-03T01:03:29;5.82;;;5.20;;
22334;SDS011;11335;43.848;25.958;2022-08-03T01:06:19;6.88;;;5.15;;
22334;SDS011;11335;43.848;25.958;2022-08-03T01:09:29;7.10;;;5.35;;
22334;SDS011;11335;43.848;25.958;2022-08-03T01:15:37;6.47;;;4.90;;
22334;SDS011;11335;43.848;25.958;2022-08-03T01:21:32;6.40;;;5.20;;
22334;SDS011;11335;43.848;25.958;2022-08-03T01:30:47;6.07;;;4.50;;
22334;SDS011;11335;43.848;25.958;2022-08-03T01:33:35;7.70;;;4.78;;
22334;SDS011;11335;43.848;25.958;2022-08-03T01:36:25;5.95;;;4.88;;
22334;SDS011;11335;43.848;25.958;2022-08-03T01:39:15;7.60;;;4.80;;
22334;SDS011;11335;43.848;25.958;2022-08-03T01:42:03;5.85;;;4.97;;
22334;SDS011;11335;43.848;25.958;2022-08-03T01:44:51;6.43;;;4.93;;
22334;SDS011;11335;43.848;25.958;2022-08-03T01:47:39;7.03;;;5.07;;
22334;SDS011;11335;43.848;25.958;2022-08-03T01:50:26;5.30;;;4.80;;
22334;SDS011;11335;43.848;25.958;2022-08-03T01:53:15;7.40;;;5.20;;
22334;SDS011;11335;43.848;25.958;2022-08-03T01:56:01;5.88;;;4.70;;
22334;SDS011;11335;43.848;25.958;2022-08-03T01:58:48;5.32;;;4.47;;
22334;SDS011;11335;43.848;25.958;2022-08-03T02:01:36;5.53;;;4.40;;
22334;SDS011;11335;43.848;25.958;2022-08-03T02:04:24;5.50;;;4.50;;
22334;SDS011;11335;43.848;25.958;2022-08-03T02:07:13;6.40;;;4.30;;
22334;SDS011;11335;43.848;25.958;2022-08-03T02:10:02;4.88;;;4.38;;
22334;SDS011;11335;43.848;25.958;2022-08-03T02:12:49;5.72;;;4.82;;
22334;SDS011;11335;43.848;25.958;2022-08-03T02:15:36;6.03;;;4.20;;
22334;SDS011;11335;43.848;25.958;2022-08-03T02:18:23;4.85;;;4.22;;
22334;SDS011;11335;43.848;25.958;2022-08-03T02:21:10;5.95;;;4.55;;
22334;SDS011;11335;43.848;25.958;2022-08-03T02:23:57;5.05;;;4.30;;
22334;SDS011;11335;43.848;25.958;2022-08-03T02:26:43;7.28;;;4.68;;
22334;SDS011;11335;43.848;25.958;2022-08-03T02:29:31;6.70;;;4.60;;
22334;SDS011;11335;43.848;25.958;2022-08-03T02:32:20;5.28;;;4.70;;
22334;SDS011;11335;43.848;25.958;2022-08-03T02:35:12;7.75;;;4.55;;
22334;SDS011;11335;43.848;25.958;2022-08-03T02:38:03;7.32;;;4.45;;
22334;SDS011;11335;43.848;25.958;2022-08-03T02:40:51;4.95;;;4.45;;
22334;SDS011;11335;43.848;25.958;2022-08-03T02:43:40;6.60;;;4.60;;
22334;SDS011;11335;43.848;25.958;2022-08-03T02:46:33;5.03;;;4.22;;
22334;SDS011;11335;43.848;25.958;2022-08-03T02:49:22;5.85;;;4.10;;
22334;SDS011;11335;43.848;25.958;2022-08-03T02:52:10;5.05;;;4.10;;
22334;SDS011;11335;43.848;25.958;2022-08-03T02:54:58;5.53;;;4.32;;
22334;SDS011;11335;43.848;25.958;2022-08-03T02:57:45;5.50;;;4.60;;
22334;SDS011;11335;43.848;25.958;2022-08-03T03:00:32;5.10;;;4.40;;
22334;SDS011;11335;43.848;25.958;2022-08-03T03:03:20;5.60;;;4.38;;
22334;SDS011;11335;43.848;25.958;2022-08-03T03:06:06;6.93;;;4.30;;
22334;SDS011;11335;43.848;25.958;2022-08-03T03:08:53;6.55;;;4.13;;
22334;SDS011;11335;43.848;25.958;2022-08-03T03:11:40;4.97;;;4.18;;
22334;SDS011;11335;43.848;25.958;2022-08-03T03:14:28;6.75;;;4.40;;
22334;SDS011;11335;43.848;25.958;2022-08-03T03:17:15;5.55;;;4.60;;
22334;SDS011;11335;43.848;25.958;2022-08-03T03:20:02;7.90;;;4.50;;
22334;SDS011;11335;43.848;25.958;2022-08-03T03:22:50;5.70;;;4.25;;
22334;SDS011;11335;43.848;25.958;2022-08-03T03:25:36;5.15;;;4.35;;
22334;SDS011;11335;43.848;25.958;2022-08-03T03:28:23;6.68;;;4.60;;
22334;SDS011;11335;43.848;25.958;2022-08-03T03:31:09;6.05;;;4.25;;
22334;SDS011;11335;43.848;25.958;2022-08-03T03:33:58;6.40;;;4.90;;
22334;SDS011;11335;43.848;25.958;2022-08-03T03:36:44;6.75;;;4.90;;
22334;SDS011;11335;43.848;25.958;2022-08-03T03:39:30;5.00;;;4.50;;
22334;SDS011;11335;43.848;25.958;2022-08-03T03:42:16;5.22;;;4.38;;
22334;SDS011;11335;43.848;25.958;2022-08-03T03:45:02;4.90;;;4.40;;
22334;SDS011;11335;43.848;25.958;2022-08-03T03:47:48;6.25;;;4.55;;
22334;SDS011;11335;43.848;25.958;2022-08-03T03:50:34;9.73;;;4.88;;
22334;SDS011;11335;43.848;25.958;2022-08-03T03:53:21;5.55;;;4.53;;
22334;SDS011;11335;43.848;25.958;2022-08-03T03:56:07;6.75;;;5.35;;
22334;SDS011;11335;43.848;25.958;2022-08-03T03:58:53;8.18;;;5.00;;
22334;SDS011;11335;43.848;25.958;2022-08-03T04:01:40;5.47;;;4.88;;
22334;SDS011;11335;43.848;25.958;2022-08-03T04:04:26;7.60;;;5.35;;
22334;SDS011;11335;43.848;25.958;2022-08-03T04:07:38;6.40;;;5.53;;
22334;SDS011;11335;43.848;25.958;2022-08-03T04:11:06;6.80;;;5.65;;
22334;SDS011;11335;43.848;25.958;2022-08-03T04:14:00;7.70;;;6.40;;
22334;SDS011;11335;43.848;25.958;2022-08-03T04:16:52;9.38;;;6.30;;
22334;SDS011;11335;43.848;25.958;2022-08-03T04:19:43;8.95;;;5.90;;
22334;SDS011;11335;43.848;25.958;2022-08-03T04:22:32;7.40;;;5.53;;
22334;SDS011;11335;43.848;25.958;2022-08-03T04:25:20;7.78;;;6.28;;
22334;SDS011;11335;43.848;25.958;2022-08-03T04:28:10;8.80;;;6.50;;
22334;SDS011;11335;43.848;25.958;2022-08-03T04:30:58;9.45;;;6.05;;
22334;SDS011;11335;43.848;25.958;2022-08-03T04:33:45;11.30;;;6.50;;
22334;SDS011;11335;43.848;25.958;2022-08-03T04:36:32;8.90;;;6.03;;
22334;SDS011;11335;43.848;25.958;2022-08-03T04:39:24;11.70;;;5.97;;
22334;SDS011;11335;43.848;25.958;2022-08-03T04:42:11;7.93;;;5.90;;
22334;SDS011;11335;43.848;25.958;2022-08-03T04:44:59;8.93;;;5.35;;
22334;SDS011;11335;43.848;25.958;2022-08-03T04:47:47;7.30;;;5.93;;
22334;SDS011;11335;43.848;25.958;2022-08-03T04:50:34;7.72;;;5.15;;
22334;SDS011;11335;43.848;25.958;2022-08-03T04:53:20;7.00;;;5.03;;
22334;SDS011;11335;43.848;25.958;2022-08-03T04:56:06;13.27;;;5.38;;
22334;SDS011;11335;43.848;25.958;2022-08-03T04:58:52;6.82;;;5.35;;
22334;SDS011;11335;43.848;25.958;2022-08-03T05:01:38;6.97;;;5.22;;
22334;SDS011;11335;43.848;25.958;2022-08-03T05:04:26;9.15;;;4.93;;
22334;SDS011;11335;43.848;25.958;2022-08-03T05:07:12;6.07;;;4.30;;
22334;SDS011;11335;43.848;25.958;2022-08-03T05:09:58;7.55;;;4.90;;
22334;SDS011;11335;43.848;25.958;2022-08-03T05:12:44;10.15;;;5.07;;
22334;SDS011;11335;43.848;25.958;2022-08-03T05:15:32;11.27;;;5.25;;
22334;SDS011;11335;43.848;25.958;2022-08-03T05:18:18;6.18;;;4.53;;
22334;SDS011;11335;43.848;25.958;2022-08-03T05:21:04;10.60;;;4.65;;
22334;SDS011;11335;43.848;25.958;2022-08-03T05:23:49;9.63;;;4.70;;
22334;SDS011;11335;43.848;25.958;2022-08-03T05:26:35;7.47;;;3.65;;
22334;SDS011;11335;43.848;25.958;2022-08-03T05:29:21;7.97;;;4.07;;
22334;SDS011;11335;43.848;25.958;2022-08-03T05:32:07;4.93;;;3.47;;
22334;SDS011;11335;43.848;25.958;2022-08-03T05:34:53;5.97;;;3.72;;
22334;SDS011;11335;43.848;25.958;2022-08-03T05:37:39;5.68;;;3.63;;
22334;SDS011;11335;43.848;25.958;2022-08-03T05:40:24;7.60;;;3.45;;
22334;SDS011;11335;43.848;25.958;2022-08-03T05:43:10;4.65;;;3.65;;
22334;SDS011;11335;43.848;25.958;2022-08-03T05:45:56;5.20;;;3.20;;
22334;SDS011;11335;43.848;25.958;2022-08-03T05:48:43;5.30;;;3.50;;
22334;SDS011;11335;43.848;25.958;2022-08-03T05:51:28;6.50;;;3.10;;
22334;SDS011;11335;43.848;25.958;2022-08-03T05:54:14;6.43;;;3.05;;
22334;SDS011;11335;43.848;25.958;2022-08-03T05:57:00;3.70;;;2.97;;
22334;SDS011;11335;43.848;25.958;2022-08-03T05:59:46;8.82;;;3.67;;
22334;SDS011;11335;43.848;25.958;2022-08-03T06:02:32;3.97;;;3.20;;
22334;SDS011;11335;43.848;25.958;2022-08-03T06:05:18;4.20;;;3.28;;
22334;SDS011;11335;43.848;25.958;2022-08-03T06:08:04;7.63;;;2.90;;
22334;SDS011;11335;43.848;25.958;2022-08-03T06:10:50;5.85;;;3.35;;
22334;SDS011;11335;43.848;25.958;2022-08-03T06:13:35;3.67;;;3.22;;
22334;SDS011;11335;43.848;25.958;2022-08-03T06:16:21;5.93;;;3.20;;
22334;SDS011;11335;43.848;25.958;2022-08-03T06:19:07;4.38;;;3.10;;
22334;SDS011;11335;43.848;25.958;2022-08-03T06:21:53;4.47;;;3.20;;
22334;SDS011;11335;43.848;25.958;2022-08-03T06:24:38;6.70;;;3.58;;
22334;SDS011;11335;43.848;25.958;2022-08-03T06:27:24;11.73;;;6.00;;
22334;SDS011;11335;43.848;25.958;2022-08-03T06:30:11;10.07;;;4.15;;
22334;SDS011;11335;43.848;25.958;2022-08-03T06:32:57;8.23;;;4.57;;
22334;SDS011;11335;43.848;25.958;2022-08-03T06:35:43;9.65;;;3.72;;
22334;SDS011;11335;43.848;25.958;2022-08-03T06:38:28;8.15;;;3.83;;
22334;SDS011;11335;43.848;25.958;2022-08-03T06:41:14;7.75;;;3.50;;
22334;SDS011;11335;43.848;25.958;2022-08-03T06:44:00;5.28;;;2.78;;
22334;SDS011;11335;43.848;25.958;2022-08-03T06:46:45;13.48;;;3.60;;
22334;SDS011;11335;43.848;25.958;2022-08-03T06:49:32;8.32;;;3.33;;
22334;SDS011;11335;43.848;25.958;2022-08-03T06:52:17;15.90;;;4.47;;
22334;SDS011;11335;43.848;25.958;2022-08-03T06:55:03;12.38;;;3.33;;
22334;SDS011;11335;43.848;25.958;2022-08-03T06:57:50;8.63;;;4.38;;
22334;SDS011;11335;43.848;25.958;2022-08-03T07:00:37;12.18;;;9.10;;
22334;SDS011;11335;43.848;25.958;2022-08-03T07:03:25;10.38;;;3.60;;
22334;SDS011;11335;43.848;25.958;2022-08-03T07:06:11;8.52;;;3.10;;
22334;SDS011;11335;43.848;25.958;2022-08-03T07:08:57;5.80;;;3.13;;
22334;SDS011;11335;43.848;25.958;2022-08-03T07:11:44;5.97;;;2.78;;
22334;SDS011;11335;43.848;25.958;2022-08-03T07:14:29;4.97;;;2.80;;
22334;SDS011;11335;43.848;25.958;2022-08-03T07:17:15;4.03;;;2.88;;
22334;SDS011;11335;43.848;25.958;2022-08-03T07:20:02;7.70;;;2.90;;
22334;SDS011;11335;43.848;25.958;2022-08-03T07:22:52;2.80;;;2.53;;
22334;SDS011;11335;43.848;25.958;2022-08-03T07:25:38;5.45;;;2.95;;
22334;SDS011;11335;43.848;25.958;2022-08-03T07:28:23;6.22;;;3.70;;
22334;SDS011;11335;43.848;25.958;2022-08-03T07:31:09;8.57;;;3.92;;
22334;SDS011;11335;43.848;25.958;2022-08-03T07:33:55;8.57;;;3.70;;
22334;SDS011;11335;43.848;25.958;2022-08-03T07:36:41;9.50;;;3.67;;
22334;SDS011;11335;43.848;25.958;2022-08-03T07:39:26;9.18;;;3.55;;
22334;SDS011;11335;43.848;25.958;2022-08-03T07:42:12;9.75;;;3.53;;
22334;SDS011;11335;43.848;25.958;2022-08-03T07:44:58;11.55;;;3.90;;
22334;SDS011;11335;43.848;25.958;2022-08-03T07:47:45;13.88;;;4.22;;
22334;SDS011;11335;43.848;25.958;2022-08-03T07:50:30;8.38;;;3.72;;
22334;SDS011;11335;43.848;25.958;2022-08-03T07:53:16;9.13;;;3.70;;
22334;SDS011;11335;43.848;25.958;2022-08-03T07:56:02;4.65;;;3.20;;
22334;SDS011;11335;43.848;25.958;2022-08-03T07:58:48;5.82;;;3.70;;
22334;SDS011;11335;43.848;25.958;2022-08-03T08:01:35;10.30;;;3.60;;
22334;SDS011;11335;43.848;25.958;2022-08-03T08:04:22;6.45;;;3.80;;
22334;SDS011;11335;43.848;25.958;2022-08-03T08:07:08;3.13;;;2.60;;
22334;SDS011;11335;43.848;25.958;2022-08-03T08:09:54;4.32;;;3.10;;
22334;SDS011;11335;43.848;25.958;2022-08-03T08:12:40;6.68;;;2.90;;
22334;SDS011;11335;43.848;25.958;2022-08-03T08:15:26;6.03;;;3.30;;
22334;SDS011;11335;43.848;25.958;2022-08-03T08:18:12;5.32;;;4.00;;
22334;SDS011;11335;43.848;25.958;2022-08-03T08:20:57;12.95;;;3.30;;
22334;SDS011;11335;43.848;25.958;2022-08-03T08:23:45;6.65;;;2.60;;
22334;SDS011;11335;43.848;25.958;2022-08-03T08:26:31;3.33;;;2.90;;
22334;SDS011;11335;43.848;25.958;2022-08-03T08:29:17;5.45;;;2.70;;
22334;SDS011;11335;43.848;25.958;2022-08-03T08:32:07;5.32;;;2.85;;
22334;SDS011;11335;43.848;25.958;2022-08-03T08:34:55;8.10;;;4.70;;
22334;SDS011;11335;43.848;25.958;2022-08-03T08:37:42;4.80;;;3.55;;
22334;SDS011;11335;43.848;25.958;2022-08-03T08:40:28;5.50;;;3.65;;
22334;SDS011;11335;43.848;25.958;2022-08-03T08:43:14;7.05;;;3.60;;
22334;SDS011;11335;43.848;25.958;2022-08-03T08:46:03;5.28;;;4.07;;
22334;SDS011;11335;43.848;25.958;2022-08-03T08:48:52;4.82;;;3.25;;
22334;SDS011;11335;43.848;25.958;2022-08-03T08:51:38;3.47;;;3.03;;
22334;SDS011;11335;43.848;25.958;2022-08-03T08:54:25;4.72;;;2.90;;
22334;SDS011;11335;43.848;25.958;2022-08-03T08:57:11;3.67;;;3.05;;
22334;SDS011;11335;43.848;25.958;2022-08-03T08:59:58;4.30;;;3.55;;
22334;SDS011;11335;43.848;25.958;2022-08-03T09:02:46;5.50;;;3.45;;
22334;SDS011;11335;43.848;25.958;2022-08-03T09:05:31;6.35;;;3.10;;
22334;SDS011;11335;43.848;25.958;2022-08-03T09:08:17;5.60;;;3.13;;
22334;SDS011;11335;43.848;25.958;2022-08-03T09:11:03;4.20;;;3.47;;
22334;SDS011;11335;43.848;25.958;2022-08-03T09:13:49;5.32;;;3.75;;
22334;SDS011;11335;43.848;25.958;2022-08-03T09:16:35;6.03;;;3.92;;
22334;SDS011;11335;43.848;25.958;2022-08-03T09:19:20;5.85;;;3.83;;
22334;SDS011;11335;43.848;25.958;2022-08-03T09:25:04;5.38;;;3.85;;
22334;SDS011;11335;43.848;25.958;2022-08-03T09:27:51;8.32;;;3.42;;
22334;SDS011;11335;43.848;25.958;2022-08-03T09:30:38;3.67;;;3.10;;
22334;SDS011;11335;43.848;25.958;2022-08-03T09:33:28;7.65;;;3.20;;
22334;SDS011;11335;43.848;25.958;2022-08-03T09:36:33;6.75;;;3.42;;
22334;SDS011;11335;43.848;25.958;2022-08-03T09:39:24;6.15;;;3.53;;
22334;SDS011;11335;43.848;25.958;2022-08-03T09:42:15;4.05;;;3.33;;
22334;SDS011;11335;43.848;25.958;2022-08-03T09:45:02;5.07;;;3.58;;
22334;SDS011;11335;43.848;25.958;2022-08-03T09:47:49;3.40;;;3.10;;
22334;SDS011;11335;43.848;25.958;2022-08-03T09:50:46;5.55;;;3.30;;
22334;SDS011;11335;43.848;25.958;2022-08-03T09:53:43;4.65;;;3.40;;
22334;SDS011;11335;43.848;25.958;2022-08-03T09:57:03;8.43;;;3.30;;
22334;SDS011;11335;43.848;25.958;2022-08-03T09:59:42;7.15;;;3.05;;
22334;SDS011;11335;43.848;25.958;2022-08-03T10:02:28;5.38;;;3.30;;
22334;SDS011;11335;43.848;25.958;2022-08-03T10:05:17;4.88;;;3.20;;
22334;SDS011;11335;43.848;25.958;2022-08-03T10:08:17;4.47;;;3.13;;
22334;SDS011;11335;43.848;25.958;2022-08-03T10:11:04;5.55;;;3.15;;
22334;SDS011;11335;43.848;25.958;2022-08-03T10:13:50;5.90;;;3.80;;
22334;SDS011;11335;43.848;25.958;2022-08-03T10:16:37;7.38;;;2.80;;
22334;SDS011;11335;43.848;25.958;2022-08-03T10:19:23;5.93;;;3.28;;
22334;SDS011;11335;43.848;25.958;2022-08-03T10:22:22;5.43;;;3.10;;
22334;SDS011;11335;43.848;25.958;2022-08-03T10:25:11;3.60;;;3.30;;
22334;SDS011;11335;43.848;25.958;2022-08-03T10:27:57;5.07;;;3.33;;
22334;SDS011;11335;43.848;25.958;2022-08-03T10:30:49;4.68;;;3.10;;
22334;SDS011;11335;43.848;25.958;2022-08-03T10:33:38;6.25;;;3.20;;
22334;SDS011;11335;43.848;25.958;2022-08-03T10:36:29;3.53;;;3.03;;
22334;SDS011;11335;43.848;25.958;2022-08-03T10:39:18;7.70;;;4.68;;
22334;SDS011;11335;43.848;25.958;2022-08-03T10:42:06;3.83;;;3.42;;
22334;SDS011;11335;43.848;25.958;2022-08-03T10:45:08;4.63;;;3.70;;
22334;SDS011;11335;43.848;25.958;2022-08-03T10:48:02;6.43;;;3.60;;
22334;SDS011;11335;43.848;25.958;2022-08-03T10:50:49;6.53;;;5.75;;
22334;SDS011;11335;43.848;25.958;2022-08-03T10:53:37;5.20;;;3.45;;
22334;SDS011;11335;43.848;25.958;2022-08-03T11:05:50;4.45;;;3.60;;
22334;SDS011;11335;43.848;25.958;2022-08-03T11:08:38;7.82;;;3.78;;
22334;SDS011;11335;43.848;25.958;2022-08-03T11:11:24;7.57;;;3.60;;
22334;SDS011;11335;43.848;25.958;2022-08-03T11:14:14;5.90;;;3.60;;
22334;SDS011;11335;43.848;25.958;2022-08-03T11:17:06;5.25;;;3.92;;
22334;SDS011;11335;43.848;25.958;2022-08-03T11:19:53;3.88;;;3.05;;
22334;SDS011;11335;43.848;25.958;2022-08-03T11:22:56;4.55;;;3.50;;
22334;SDS011;11335;43.848;25.958;2022-08-03T11:29:33;7.03;;;3.15;;
22334;SDS011;11335;43.848;25.958;2022-08-03T11:35:28;3.75;;;3.17;;
22334;SDS011;11335;43.848;25.958;2022-08-03T11:38:16;3.95;;;2.97;;
22334;SDS011;11335;43.848;25.958;2022-08-03T11:41:03;3.25;;;2.83;;
22334;SDS011;11335;43.848;25.958;2022-08-03T11:43:49;3.97;;;3.28;;
22334;SDS011;11335;43.848;25.958;2022-08-03T11:46:38;3.60;;;3.20;;
22334;SDS011;11335;43.848;25.958;2022-08-03T11:49:24;3.17;;;2.88;;
22334;SDS011;11335;43.848;25.958;2022-08-03T11:52:09;3.50;;;3.20;;
22334;SDS011;11335;43.848;25.958;2022-08-03T11:54:55;3.40;;;3.10;;
22334;SDS011;11335;43.848;25.958;2022-08-03T11:57:48;6.65;;;3.20;;
22334;SDS011;11335;43.848;25.958;2022-08-03T12:00:34;4.30;;;3.90;;
22334;SDS011;11335;43.848;25.958;2022-08-03T12:03:23;6.68;;;6.05;;
22334;SDS011;11335;43.848;25.958;2022-08-03T12:06:13;6.60;;;3.55;;
22334;SDS011;11335;43.848;25.958;2022-08-03T12:09:00;6.82;;;3.67;;
22334;SDS011;11335;43.848;25.958;2022-08-03T12:11:50;5.18;;;3.38;;
22334;SDS011;11335;43.848;25.958;2022-08-03T12:14:36;8.30;;;5.63;;
22334;SDS011;11335;43.848;25.958;2022-08-03T12:17:34;5.53;;;3.00;;
22334;SDS011;11335;43.848;25.958;2022-08-03T12:20:26;3.92;;;3.10;;
22334;SDS011;11335;43.848;25.958;2022-08-03T12:23:13;3.30;;;3.00;;
22334;SDS011;11335;43.848;25.958;2022-08-03T12:26:03;6.38;;;4.30;;
22334;SDS011;11335;43.848;25.958;2022-08-03T12:28:51;4.97;;;4.03;;
22334;SDS011;11335;43.848;25.958;2022-08-03T12:31:37;4.18;;;2.78;;
22334;SDS011;11335;43.848;25.958;2022-08-03T12:34:22;3.22;;;2.92;;
22334;SDS011;11335;43.848;25.958;2022-08-03T12:37:08;9.85;;;2.90;;
22334;SDS011;11335;43.848;25.958;2022-08-03T12:39:58;5.55;;;3.40;;
22334;SDS011;11335;43.848;25.958;2022-08-03T12:42:45;6.65;;;2.90;;
22334;SDS011;11335;43.848;25.958;2022-08-03T12:45:31;3.20;;;2.90;;
22334;SDS011;11335;43.848;25.958;2022-08-03T12:48:18;5.40;;;3.00;;
22334;SDS011;11335;43.848;25.958;2022-08-03T12:51:10;3.58;;;2.80;;
22334;SDS011;11335;43.848;25.958;2022-08-03T12:53:57;4.45;;;3.40;;
22334;SDS011;11335;43.848;25.958;2022-08-03T13:00:09;2.97;;;2.67;;
22334;SDS011;11335;43.848;25.958;2022-08-03T13:02:59;5.18;;;3.17;;
22334;SDS011;11335;43.848;25.958;2022-08-03T13:05:50;4.70;;;3.53;;
22334;SDS011;11335;43.848;25.958;2022-08-03T13:08:36;6.13;;;3.35;;
22334;SDS011;11335;43.848;25.958;2022-08-03T13:11:25;3.40;;;3.10;;
22334;SDS011;11335;43.848;25.958;2022-08-03T13:14:11;4.82;;;3.50;;
22334;SDS011;11335;43.848;25.958;2022-08-03T13:16:57;7.07;;;3.10;;
22334;SDS011;11335;43.848;25.958;2022-08-03T13:19:43;5.43;;;3.35;;
22334;SDS011;11335;43.848;25.958;2022-08-03T13:22:30;5.38;;;3.35;;
22334;SDS011;11335;43.848;25.958;2022-08-03T13:25:19;5.88;;;3.20;;
22334;SDS011;11335;43.848;25.958;2022-08-03T13:28:04;4.28;;;2.88;;
22334;SDS011;11335;43.848;25.958;2022-08-03T13:30:50;5.85;;;3.58;;
22334;SDS011;11335;43.848;25.958;2022-08-03T13:33:38;7.30;;;5.20;;
22334;SDS011;11335;43.848;25.958;2022-08-03T13:36:25;3.78;;;3.38;;
22334;SDS011;11335;43.848;25.958;2022-08-03T13:39:10;4.22;;;3.40;;
22334;SDS011;11335;43.848;25.958;2022-08-03T13:41:56;4.95;;;2.80;;
22334;SDS011;11335;43.848;25.958;2022-08-03T13:44:42;3.20;;;2.90;;
22334;SDS011;11335;43.848;25.958;2022-08-03T13:47:28;3.42;;;3.00;;
22334;SDS011;11335;43.848;25.958;2022-08-03T13:50:14;3.22;;;2.92;;
22334;SDS011;11335;43.848;25.958;2022-08-03T13:53:00;4.53;;;2.72;;
22334;SDS011;11335;43.848;25.958;2022-08-03T13:55:46;3.55;;;2.88;;
22334;SDS011;11335;43.848;25.958;2022-08-03T13:58:32;5.03;;;3.22;;
22334;SDS011;11335;43.848;25.958;2022-08-03T14:01:17;4.38;;;2.90;;
22334;SDS011;11335;43.848;25.958;2022-08-03T14:04:03;6.72;;;2.88;;
22334;SDS011;11335;43.848;25.958;2022-08-03T14:06:49;8.98;;;5.40;;
22334;SDS011;11335;43.848;25.958;2022-08-03T14:09:35;7.90;;;4.13;;
22334;SDS011;11335;43.848;25.958;2022-08-03T14:12:21;4.22;;;3.00;;
22334;SDS011;11335;43.848;25.958;2022-08-03T14:15:07;4.30;;;3.08;;
22334;SDS011;11335;43.848;25.958;2022-08-03T14:17:54;5.38;;;2.80;;
22334;SDS011;11335;43.848;25.958;2022-08-03T14:20:42;4.95;;;2.90;;
22334;SDS011;11335;43.848;25.958;2022-08-03T14:23:28;6.03;;;2.90;;
22334;SDS011;11335;43.848;25.958;2022-08-03T14:26:14;5.05;;;2.80;;
22334;SDS011;11335;43.848;25.958;2022-08-03T14:29:02;3.40;;;2.90;;
22334;SDS011;11335;43.848;25.958;2022-08-03T14:31:49;4.70;;;2.80;;
22334;SDS011;11335;43.848;25.958;2022-08-03T14:34:35;3.63;;;2.40;;
22334;SDS011;11335;43.848;25.958;2022-08-03T14:37:20;3.55;;;2.95;;
22334;SDS011;11335;43.848;25.958;2022-08-03T14:40:06;3.47;;;3.17;;
22334;SDS011;11335;43.848;25.958;2022-08-03T14:42:52;5.45;;;3.00;;
22334;SDS011;11335;43.848;25.958;2022-08-03T14:45:38;5.30;;;3.03;;
22334;SDS011;11335;43.848;25.958;2022-08-03T14:48:24;5.43;;;2.80;;
22334;SDS011;11335;43.848;25.958;2022-08-03T14:51:11;4.03;;;2.60;;
22334;SDS011;11335;43.848;25.958;2022-08-03T14:53:57;10.30;;;9.30;;
22334;SDS011;11335;43.848;25.958;2022-08-03T14:56:43;6.95;;;3.13;;
22334;SDS011;11335;43.848;25.958;2022-08-03T14:59:29;4.28;;;2.85;;
22334;SDS011;11335;43.848;25.958;2022-08-03T15:02:14;4.05;;;2.67;;
22334;SDS011;11335;43.848;25.958;2022-08-03T15:05:00;4.57;;;2.70;;
22334;SDS011;11335;43.848;25.958;2022-08-03T15:07:46;3.97;;;2.40;;
22334;SDS011;11335;43.848;25.958;2022-08-03T15:10:32;3.95;;;2.63;;
22334;SDS011;11335;43.848;25.958;2022-08-03T15:13:18;2.65;;;2.45;;
22334;SDS011;11335;43.848;25.958;2022-08-03T15:16:04;2.90;;;2.60;;
22334;SDS011;11335;43.848;25.958;2022-08-03T15:18:50;3.58;;;2.85;;
22334;SDS011;11335;43.848;25.958;2022-08-03T15:21:35;3.88;;;2.65;;
22334;SDS011;11335;43.848;25.958;2022-08-03T15:24:21;4.40;;;3.75;;
22334;SDS011;11335;43.848;25.958;2022-08-03T15:27:07;3.63;;;2.60;;
22334;SDS011;11335;43.848;25.958;2022-08-03T15:29:53;7.15;;;3.17;;
22334;SDS011;11335;43.848;25.958;2022-08-03T15:32:38;3.10;;;2.80;;
22334;SDS011;11335;43.848;25.958;2022-08-03T15:35:24;4.60;;;2.83;;
22334;SDS011;11335;43.848;25.958;2022-08-03T15:38:13;4.65;;;3.13;;
22334;SDS011;11335;43.848;25.958;2022-08-03T15:40:59;6.10;;;3.10;;
22334;SDS011;11335;43.848;25.958;2022-08-03T15:43:44;4.40;;;2.97;;
22334;SDS011;11335;43.848;25.958;2022-08-03T15:46:31;3.00;;;2.70;;
22334;SDS011;11335;43.848;25.958;2022-08-03T15:49:17;6.45;;;2.90;;
22334;SDS011;11335;43.848;25.958;2022-08-03T15:52:04;2.90;;;2.63;;
22334;SDS011;11335;43.848;25.958;2022-08-03T15:54:50;3.75;;;2.85;;
22334;SDS011;11335;43.848;25.958;2022-08-03T15:57:36;4.40;;;2.90;;
22334;SDS011;11335;43.848;25.958;2022-08-03T16:00:22;9.30;;;6.93;;
22334;SDS011;11335;43.848;25.958;2022-08-03T16:03:08;11.30;;;8.60;;
22334;SDS011;11335;43.848;25.958;2022-08-03T16:05:54;8.18;;;4.60;;
22334;SDS011;11335;43.848;25.958;2022-08-03T16:08:40;4.32;;;3.38;;
22334;SDS011;11335;43.848;25.958;2022-08-03T16:11:26;4.10;;;2.92;;
22334;SDS011;11335;43.848;25.958;2022-08-03T16:14:12;7.28;;;2.83;;
22334;SDS011;11335;43.848;25.958;2022-08-03T16:16:58;4.93;;;2.70;;
22334;SDS011;11335;43.848;25.958;2022-08-03T16:19:43;5.20;;;2.92;;
22334;SDS011;11335;43.848;25.958;2022-08-03T16:22:29;2.90;;;2.70;;
22334;SDS011;11335;43.848;25.958;2022-08-03T16:25:15;4.82;;;3.00;;
22334;SDS011;11335;43.848;25.958;2022-08-03T16:28:02;6.25;;;3.17;;
22334;SDS011;11335;43.848;25.958;2022-08-03T16:30:48;3.65;;;3.00;;
22334;SDS011;11335;43.848;25.958;2022-08-03T16:33:34;3.25;;;2.85;;
22334;SDS011;11335;43.848;25.958;2022-08-03T16:36:20;4.30;;;2.83;;
22334;SDS011;11335;43.848;25.958;2022-08-03T16:39:06;6.90;;;4.00;;
22334;SDS011;11335;43.848;25.958;2022-08-03T16:41:51;5.65;;;3.20;;
22334;SDS011;11335;43.848;25.958;2022-08-03T16:44:37;6.57;;;3.67;;
22334;SDS011;11335;43.848;25.958;2022-08-03T16:47:23;7.38;;;4.55;;
22334;SDS011;11335;43.848;25.958;2022-08-03T16:50:09;6.05;;;3.67;;
22334;SDS011;11335;43.848;25.958;2022-08-03T16:52:55;8.68;;;3.20;;
22334;SDS011;11335;43.848;25.958;2022-08-03T16:55:40;5.75;;;3.53;;
22334;SDS011;11335;43.848;25.958;2022-08-03T16:58:26;6.40;;;3.40;;
22334;SDS011;11335;43.848;25.958;2022-08-03T17:01:13;5.53;;;3.60;;
22334;SDS011;11335;43.848;25.958;2022-08-03T17:03:59;5.72;;;3.70;;
22334;SDS011;11335;43.848;25.958;2022-08-03T17:06:45;8.35;;;3.60;;
22334;SDS011;11335;43.848;25.958;2022-08-03T17:09:31;6.78;;;3.60;;